createdAt,value
2023-12-30T00:00:42.856Z,8.73
2023-12-30T00:01:39.605Z,8.86
2023-12-30T00:02:39.491Z,8.73
2023-12-30T00:03:39.536Z,8.82
2023-12-30T00:04:44.367Z,8.79
2023-12-30T00:05:39.504Z,8.73
2023-12-30T00:06:39.588Z,8.75
2023-12-30T00:07:41.765Z,8.73
2023-12-30T00:08:40.492Z,8.68
2023-12-30T00:09:41.471Z,8.80
2023-12-30T00:10:39.411Z,8.79
2023-12-30T00:11:39.525Z,8.79
2023-12-30T00:12:44.521Z,8.89
2023-12-30T00:13:40.783Z,8.86
2023-12-30T00:14:43.085Z,8.82
2023-12-30T00:15:40.313Z,8.79
2023-12-30T00:16:40.755Z,8.82
2023-12-30T00:17:40.263Z,8.78
2023-12-30T00:18:44.945Z,8.82
2023-12-30T00:19:41.666Z,8.85
2023-12-30T00:20:41.801Z,8.89
2023-12-30T00:21:44.477Z,8.88
2023-12-30T00:22:40.518Z,8.91
2023-12-30T00:23:45.909Z,8.93
2023-12-30T00:24:42.862Z,8.85
2023-12-30T00:25:42.749Z,8.88
2023-12-30T00:26:40.460Z,8.83
2023-12-30T00:27:39.926Z,8.83
2023-12-30T00:28:41.302Z,8.91
2023-12-30T00:29:46.931Z,8.91
2023-12-30T00:30:39.268Z,8.89
2023-12-30T00:31:40.521Z,8.93
2023-12-30T00:32:39.365Z,8.93
2023-12-30T00:33:40.639Z,9.00
2023-12-30T00:34:42.126Z,8.96
2023-12-30T00:35:40.403Z,8.94
2023-12-30T00:36:41.747Z,8.89
2023-12-30T00:37:41.317Z,8.93
2023-12-30T00:38:40.593Z,9.00
2023-12-30T00:39:41.820Z,8.96
2023-12-30T00:40:39.605Z,8.98
2023-12-30T00:41:41.510Z,8.98
2023-12-30T00:42:41.171Z,8.94
2023-12-30T00:43:40.651Z,8.97
2023-12-30T00:44:41.493Z,8.97
2023-12-30T00:45:39.057Z,8.94
2023-12-30T00:46:40.099Z,8.93
2023-12-30T00:47:39.050Z,8.91
2023-12-30T00:48:39.309Z,8.88
2023-12-30T00:49:42.640Z,8.89
2023-12-30T00:50:38.990Z,8.93
2023-12-30T00:51:41.394Z,8.94
2023-12-30T00:52:40.709Z,8.96
2023-12-30T00:53:40.555Z,8.86
2023-12-30T00:54:44.679Z,8.83
2023-12-30T00:55:40.930Z,8.88
2023-12-30T00:56:40.343Z,8.80
2023-12-30T00:57:41.009Z,8.80
2023-12-30T00:58:38.895Z,8.80
2023-12-30T00:59:39.441Z,8.89
2023-12-30T01:00:42.169Z,8.83
2023-12-30T01:01:39.465Z,8.80
2023-12-30T01:02:39.364Z,8.73
2023-12-30T01:03:38.893Z,8.76
2023-12-30T01:04:39.051Z,8.71
2023-12-30T01:05:40.108Z,8.80
2023-12-30T01:06:40.676Z,8.71
2023-12-30T01:07:40.154Z,8.75
2023-12-30T01:08:39.171Z,8.61
2023-12-30T01:09:38.746Z,8.75
2023-12-30T01:10:39.334Z,8.60
2023-12-30T01:11:40.491Z,8.65
2023-12-30T01:12:39.177Z,8.65
2023-12-30T01:13:38.768Z,8.68
2023-12-30T01:14:40.116Z,8.71
2023-12-30T01:15:38.705Z,8.65
2023-12-30T01:16:42.510Z,8.57
2023-12-30T01:17:41.250Z,8.58
2023-12-30T01:18:38.924Z,8.58
2023-12-30T01:19:38.677Z,8.60
2023-12-30T01:20:40.012Z,8.61
2023-12-30T01:21:38.631Z,8.58
2023-12-30T01:22:38.803Z,8.64
2023-12-30T01:23:39.933Z,8.49
2023-12-30T01:24:38.612Z,8.49
2023-12-30T01:25:41.243Z,8.46
2023-12-30T01:26:39.647Z,8.45
2023-12-30T01:27:39.852Z,8.45
2023-12-30T01:28:39.825Z,8.49
2023-12-30T01:29:38.555Z,8.49
2023-12-30T01:30:40.097Z,8.42
2023-12-30T01:31:40.919Z,8.40
2023-12-30T01:32:39.950Z,8.43
2023-12-30T01:33:40.864Z,8.49
2023-12-30T01:34:38.636Z,8.55
2023-12-30T01:35:38.505Z,8.54
2023-12-30T01:36:38.496Z,8.43
2023-12-30T01:37:38.560Z,8.47
2023-12-30T01:38:38.529Z,8.49
2023-12-30T01:39:38.514Z,8.42
2023-12-30T01:40:38.469Z,8.55
2023-12-30T01:41:38.489Z,8.60
2023-12-30T01:42:38.442Z,8.50
2023-12-30T01:43:38.596Z,8.55
2023-12-30T01:44:38.368Z,8.61
2023-12-30T01:45:39.632Z,8.55
2023-12-30T01:46:38.363Z,8.57
2023-12-30T01:47:38.687Z,8.71
2023-12-30T01:48:38.440Z,8.60
2023-12-30T01:49:38.468Z,8.57
2023-12-30T01:50:40.486Z,8.55
2023-12-30T01:51:38.290Z,8.64
2023-12-30T01:52:38.422Z,8.52
2023-12-30T01:53:38.506Z,8.42
2023-12-30T01:54:38.284Z,8.58
2023-12-30T01:55:41.461Z,8.42
2023-12-30T01:56:39.262Z,8.50
2023-12-30T01:57:38.865Z,8.39
2023-12-30T01:58:40.203Z,8.40
2023-12-30T01:59:38.210Z,8.36
2023-12-30T02:00:40.093Z,8.31
2023-12-30T02:01:39.807Z,8.22
2023-12-30T02:02:39.292Z,8.28
2023-12-30T02:03:38.367Z,8.14
2023-12-30T02:04:38.346Z,8.12
2023-12-30T02:05:38.290Z,8.20
2023-12-30T02:06:38.206Z,8.12
2023-12-30T02:07:38.173Z,8.10
2023-12-30T02:08:39.174Z,8.06
2023-12-30T02:09:38.244Z,8.04
2023-12-30T02:10:38.190Z,8.04
2023-12-30T02:11:38.143Z,8.04
2023-12-30T02:12:38.189Z,8.04
2023-12-30T02:13:38.759Z,7.91
2023-12-30T02:14:38.135Z,7.95
2023-12-30T02:15:38.068Z,8.00
2023-12-30T02:16:38.115Z,7.92
2023-12-30T02:17:38.159Z,8.04
2023-12-30T02:18:38.143Z,7.92
2023-12-30T02:19:38.038Z,8.00
2023-12-30T02:20:41.044Z,7.94
2023-12-30T02:21:38.712Z,7.91
2023-12-30T02:22:39.094Z,7.85
2023-12-30T02:23:39.017Z,7.85
2023-12-30T02:24:39.194Z,7.81
2023-12-30T02:25:38.077Z,7.89
2023-12-30T02:26:40.234Z,7.92
2023-12-30T02:27:38.993Z,7.89
2023-12-30T02:28:38.240Z,7.88
2023-12-30T02:29:38.138Z,7.84
2023-12-30T02:30:40.061Z,7.82
2023-12-30T02:31:38.898Z,7.96
2023-12-30T02:32:37.934Z,7.82
2023-12-30T02:33:38.046Z,7.82
2023-12-30T02:34:37.926Z,7.85
2023-12-30T02:35:38.840Z,7.81
2023-12-30T02:36:37.809Z,7.89
2023-12-30T02:37:38.778Z,7.86
2023-12-30T02:38:37.808Z,7.89
2023-12-30T02:39:37.993Z,7.91
2023-12-30T02:40:38.527Z,7.96
2023-12-30T02:41:37.773Z,7.89
2023-12-30T02:42:37.801Z,7.92
2023-12-30T02:43:37.821Z,7.94
2023-12-30T02:44:38.681Z,7.91
2023-12-30T02:45:40.125Z,7.88
2023-12-30T02:46:37.896Z,7.88
2023-12-30T02:47:38.024Z,7.88
2023-12-30T02:48:37.742Z,7.84
2023-12-30T02:49:37.753Z,7.91
2023-12-30T02:50:38.653Z,7.81
2023-12-30T02:51:39.016Z,7.84
2023-12-30T02:52:38.494Z,7.85
2023-12-30T02:53:38.155Z,7.88
2023-12-30T02:54:39.045Z,7.85
2023-12-30T02:55:40.204Z,7.85
2023-12-30T02:56:38.574Z,7.86
2023-12-30T02:57:48.574Z,7.91
2023-12-30T02:58:38.600Z,7.94
2023-12-30T02:59:38.616Z,8.02
2023-12-30T03:00:37.683Z,8.03
2023-12-30T03:01:40.193Z,7.99
2023-12-30T03:02:38.218Z,8.02
2023-12-30T03:03:37.545Z,7.91
2023-12-30T03:04:38.594Z,8.03
2023-12-30T03:05:39.386Z,8.03
2023-12-30T03:06:38.203Z,7.91
2023-12-30T03:07:37.454Z,8.06
2023-12-30T03:08:39.104Z,7.91
2023-12-30T03:09:38.586Z,7.92
2023-12-30T03:10:39.031Z,8.03
2023-12-30T03:11:39.953Z,7.95
2023-12-30T03:12:38.534Z,8.04
2023-12-30T03:13:38.930Z,7.94
2023-12-30T03:14:37.408Z,8.10
2023-12-30T03:15:37.395Z,8.12
2023-12-30T03:16:37.440Z,8.10
2023-12-30T03:17:37.700Z,8.06
2023-12-30T03:18:37.467Z,8.17
2023-12-30T03:19:37.368Z,8.25
2023-12-30T03:20:37.342Z,8.20
2023-12-30T03:21:37.383Z,8.20
2023-12-30T03:22:37.356Z,8.24
2023-12-30T03:23:37.372Z,8.27
2023-12-30T03:24:37.355Z,8.24
2023-12-30T03:25:37.400Z,8.24
2023-12-30T03:26:37.283Z,8.20
2023-12-30T03:27:38.409Z,8.28
2023-12-30T03:28:37.317Z,8.20
2023-12-30T03:29:37.257Z,8.24
2023-12-30T03:30:37.276Z,8.25
2023-12-30T03:31:37.232Z,8.24
2023-12-30T03:32:37.254Z,8.18
2023-12-30T03:33:37.375Z,8.22
2023-12-30T03:34:37.414Z,8.21
2023-12-30T03:35:37.151Z,8.24
2023-12-30T03:36:37.147Z,8.17
2023-12-30T03:37:37.234Z,8.18
2023-12-30T03:38:37.185Z,8.10
2023-12-30T03:39:37.280Z,8.13
2023-12-30T03:40:37.180Z,8.14
2023-12-30T03:41:37.084Z,8.13
2023-12-30T03:42:37.071Z,8.12
2023-12-30T03:43:37.183Z,8.22
2023-12-30T03:44:37.087Z,8.04
2023-12-30T03:45:37.031Z,8.07
2023-12-30T03:46:37.071Z,7.96
2023-12-30T03:47:37.055Z,8.09
2023-12-30T03:48:37.028Z,8.09
2023-12-30T03:49:37.183Z,8.02
2023-12-30T03:50:37.555Z,7.96
2023-12-30T03:51:37.049Z,7.95
2023-12-30T03:52:37.104Z,7.96
2023-12-30T03:53:37.039Z,7.88
2023-12-30T03:54:36.980Z,7.86
2023-12-30T03:55:37.137Z,7.86
2023-12-30T03:56:36.936Z,7.85
2023-12-30T03:57:37.537Z,7.89
2023-12-30T03:58:36.970Z,7.88
2023-12-30T03:59:36.962Z,7.82
2023-12-30T04:00:36.979Z,7.86
2023-12-30T04:01:38.083Z,7.76
2023-12-30T04:02:36.972Z,7.73
2023-12-30T04:03:36.841Z,7.76
2023-12-30T04:04:36.941Z,7.74
2023-12-30T04:05:36.873Z,7.79
2023-12-30T04:06:36.803Z,7.85
2023-12-30T04:07:36.909Z,7.81
2023-12-30T04:08:36.816Z,7.74
2023-12-30T04:09:36.747Z,7.81
2023-12-30T04:10:36.875Z,7.84
2023-12-30T04:11:36.796Z,7.84
2023-12-30T04:12:36.830Z,7.88
2023-12-30T04:13:36.798Z,7.84
2023-12-30T04:14:36.725Z,7.89
2023-12-30T04:15:37.625Z,7.88
2023-12-30T04:16:36.733Z,7.95
2023-12-30T04:17:36.815Z,7.88
2023-12-30T04:18:38.260Z,7.89
2023-12-30T04:19:36.726Z,7.79
2023-12-30T04:20:36.711Z,7.82
2023-12-30T04:21:36.661Z,7.81
2023-12-30T04:22:36.704Z,7.79
2023-12-30T04:23:36.667Z,7.79
2023-12-30T04:24:36.660Z,7.66
2023-12-30T04:25:36.786Z,7.58
2023-12-30T04:26:36.670Z,7.50
2023-12-30T04:27:36.659Z,7.54
2023-12-30T04:28:36.742Z,7.39
2023-12-30T04:29:36.660Z,7.39
2023-12-30T04:30:36.737Z,7.32
2023-12-30T04:31:36.660Z,7.33
2023-12-30T04:32:36.605Z,7.24
2023-12-30T04:33:36.828Z,7.23
2023-12-30T04:34:36.566Z,7.24
2023-12-30T04:35:36.573Z,7.23
2023-12-30T04:36:36.501Z,7.24
2023-12-30T04:37:36.738Z,7.15
2023-12-30T04:38:36.463Z,7.23
2023-12-30T04:39:36.638Z,7.24
2023-12-30T04:40:36.634Z,7.16
2023-12-30T04:41:36.782Z,7.15
2023-12-30T04:42:36.650Z,7.15
2023-12-30T04:43:36.483Z,7.14
2023-12-30T04:44:36.504Z,7.16
2023-12-30T04:45:36.420Z,7.15
2023-12-30T04:46:36.487Z,7.08
2023-12-30T04:47:36.387Z,7.09
2023-12-30T04:48:36.460Z,6.99
2023-12-30T04:49:36.495Z,7.01
2023-12-30T04:50:36.625Z,6.93
2023-12-30T04:51:36.720Z,6.96
2023-12-30T04:52:36.670Z,6.96
2023-12-30T04:53:36.282Z,6.94
2023-12-30T04:54:36.329Z,6.99
2023-12-30T04:55:38.377Z,6.97
2023-12-30T04:56:37.921Z,6.93
2023-12-30T04:57:36.258Z,6.87
2023-12-30T04:58:36.227Z,6.91
2023-12-30T04:59:38.923Z,6.94
2023-12-30T05:00:38.236Z,6.90
2023-12-30T05:01:37.792Z,6.93
2023-12-30T05:02:37.904Z,6.96
2023-12-30T05:03:37.160Z,6.96
2023-12-30T05:04:37.895Z,6.96
2023-12-30T05:05:37.580Z,6.91
2023-12-30T05:06:37.547Z,6.83
2023-12-30T05:07:41.096Z,6.91
2023-12-30T05:08:36.177Z,6.81
2023-12-30T05:09:37.172Z,6.83
2023-12-30T05:10:36.311Z,6.79
2023-12-30T05:11:36.062Z,6.69
2023-12-30T05:12:37.646Z,6.76
2023-12-30T05:13:38.068Z,6.76
2023-12-30T05:14:37.243Z,6.82
2023-12-30T05:15:38.423Z,6.73
2023-12-30T05:16:40.168Z,6.76
2023-12-30T05:17:37.449Z,6.68
2023-12-30T05:18:36.124Z,6.72
2023-12-30T05:19:40.106Z,6.78
2023-12-30T05:20:36.979Z,6.65
2023-12-30T05:21:39.059Z,6.68
2023-12-30T05:22:37.443Z,6.69
2023-12-30T05:23:39.438Z,6.76
2023-12-30T05:24:35.967Z,6.75
2023-12-30T05:25:37.036Z,6.68
2023-12-30T05:26:36.017Z,6.69
2023-12-30T05:27:35.894Z,6.75
2023-12-30T05:28:37.141Z,6.69
2023-12-30T05:29:35.883Z,6.68
2023-12-30T05:30:36.468Z,6.69
2023-12-30T05:31:36.295Z,6.69
2023-12-30T05:32:37.497Z,6.65
2023-12-30T05:33:36.023Z,6.64
2023-12-30T05:34:39.466Z,6.68
2023-12-30T05:35:36.070Z,6.72
2023-12-30T05:36:35.789Z,6.76
2023-12-30T05:37:39.724Z,6.83
2023-12-30T05:38:38.155Z,6.71
2023-12-30T05:39:36.757Z,6.86
2023-12-30T05:40:37.202Z,6.82
2023-12-30T05:41:35.719Z,6.82
2023-12-30T05:42:35.855Z,6.76
2023-12-30T05:43:37.014Z,6.81
2023-12-30T05:44:35.698Z,6.73
2023-12-30T05:45:36.696Z,6.75
2023-12-30T05:46:36.746Z,6.76
2023-12-30T05:47:35.722Z,6.72
2023-12-30T05:48:35.688Z,6.78
2023-12-30T05:49:39.088Z,6.78
2023-12-30T05:50:35.642Z,6.82
2023-12-30T05:51:36.798Z,6.76
2023-12-30T05:52:36.709Z,6.76
2023-12-30T05:53:35.733Z,6.82
2023-12-30T05:54:36.708Z,6.93
2023-12-30T05:55:35.714Z,6.81
2023-12-30T05:56:37.110Z,6.90
2023-12-30T05:57:39.360Z,6.86
2023-12-30T05:58:36.882Z,6.83
2023-12-30T05:59:37.265Z,6.83
2023-12-30T06:00:36.491Z,6.83
2023-12-30T06:01:36.554Z,6.94
2023-12-30T06:02:35.689Z,6.90
2023-12-30T06:03:36.571Z,6.93
2023-12-30T06:04:36.752Z,6.87
2023-12-30T06:05:36.402Z,6.89
2023-12-30T06:06:37.397Z,6.91
2023-12-30T06:07:35.545Z,6.87
2023-12-30T06:08:35.449Z,6.89
2023-12-30T06:09:38.576Z,6.86
2023-12-30T06:10:42.412Z,6.81
2023-12-30T06:11:37.385Z,6.93
2023-12-30T06:12:35.395Z,6.79
2023-12-30T06:13:36.912Z,6.91
2023-12-30T06:14:36.427Z,6.83
2023-12-30T06:15:37.640Z,6.81
2023-12-30T06:16:36.732Z,6.90
2023-12-30T06:17:36.178Z,6.81
2023-12-30T06:18:36.398Z,6.90
2023-12-30T06:19:35.336Z,6.81
2023-12-30T06:20:40.468Z,6.82
2023-12-30T06:21:38.190Z,6.87
2023-12-30T06:22:36.415Z,6.78
2023-12-30T06:23:36.734Z,6.93
2023-12-30T06:24:35.278Z,6.86
2023-12-30T06:25:35.591Z,6.87
2023-12-30T06:26:35.217Z,6.79
2023-12-30T06:27:36.232Z,6.94
2023-12-30T06:28:35.388Z,6.96
2023-12-30T06:29:37.599Z,6.97
2023-12-30T06:30:36.414Z,6.99
2023-12-30T06:31:36.980Z,6.94
2023-12-30T06:32:35.242Z,6.93
2023-12-30T06:33:38.421Z,6.96
2023-12-30T06:34:36.350Z,6.96
2023-12-30T06:35:36.769Z,6.97
2023-12-30T06:36:35.119Z,6.91
2023-12-30T06:37:37.727Z,6.89
2023-12-30T06:38:38.713Z,6.93
2023-12-30T06:39:35.099Z,6.89
2023-12-30T06:40:35.157Z,6.81
2023-12-30T06:41:36.248Z,6.89
2023-12-30T06:42:37.717Z,6.83
2023-12-30T06:43:36.136Z,6.82
2023-12-30T06:44:35.037Z,6.82
2023-12-30T06:45:36.654Z,6.82
2023-12-30T06:46:36.831Z,6.79
2023-12-30T06:47:35.040Z,6.72
2023-12-30T06:48:36.501Z,6.75
2023-12-30T06:49:34.988Z,6.63
2023-12-30T06:50:36.177Z,6.69
2023-12-30T06:51:36.027Z,6.71
2023-12-30T06:52:38.198Z,6.69
2023-12-30T06:53:36.142Z,6.68
2023-12-30T06:54:36.910Z,6.61
2023-12-30T06:55:38.789Z,6.64
2023-12-30T06:56:36.950Z,6.61
2023-12-30T06:57:39.990Z,6.60
2023-12-30T06:58:34.939Z,6.68
2023-12-30T06:59:37.530Z,6.69
2023-12-30T07:00:36.413Z,6.64
2023-12-30T07:01:37.689Z,6.68
2023-12-30T07:02:34.930Z,6.69
2023-12-30T07:03:38.713Z,6.69
2023-12-30T07:04:36.835Z,6.75
2023-12-30T07:05:34.878Z,6.79
2023-12-30T07:06:36.262Z,6.76
2023-12-30T07:07:35.206Z,6.87
2023-12-30T07:08:37.255Z,6.90
2023-12-30T07:09:36.916Z,6.78
2023-12-30T07:10:34.894Z,6.82
2023-12-30T07:11:37.029Z,6.76
2023-12-30T07:12:38.454Z,6.82
2023-12-30T07:13:35.982Z,6.93
2023-12-30T07:14:35.973Z,6.96
2023-12-30T07:15:36.931Z,6.83
2023-12-30T07:16:37.127Z,6.93
2023-12-30T07:17:36.790Z,6.96
2023-12-30T07:18:34.659Z,6.93
2023-12-30T07:19:35.830Z,6.91
2023-12-30T07:20:34.637Z,6.97
2023-12-30T07:21:35.910Z,6.96
2023-12-30T07:22:35.732Z,7.00
2023-12-30T07:23:35.900Z,6.91
2023-12-30T07:24:34.584Z,6.99
2023-12-30T07:25:38.105Z,6.97
2023-12-30T07:26:38.993Z,7.05
2023-12-30T07:27:36.693Z,6.93
2023-12-30T07:28:36.188Z,7.00
2023-12-30T07:29:39.368Z,7.05
2023-12-30T07:30:34.663Z,7.07
2023-12-30T07:31:36.030Z,7.01
2023-12-30T07:32:37.087Z,7.01
2023-12-30T07:33:35.748Z,7.04
2023-12-30T07:34:34.657Z,7.01
2023-12-30T07:35:35.657Z,7.09
2023-12-30T07:36:34.484Z,7.08
2023-12-30T07:37:38.682Z,6.99
2023-12-30T07:38:36.668Z,6.93
2023-12-30T07:39:34.491Z,7.11
2023-12-30T07:40:35.736Z,6.91
2023-12-30T07:41:36.809Z,7.01
2023-12-30T07:42:37.102Z,7.05
2023-12-30T07:43:34.579Z,6.99
2023-12-30T07:44:35.956Z,6.97
2023-12-30T07:45:35.463Z,7.00
2023-12-30T07:46:38.993Z,6.96
2023-12-30T07:47:34.336Z,6.89
2023-12-30T07:48:34.381Z,6.93
2023-12-30T07:49:37.294Z,6.91
2023-12-30T07:50:35.451Z,6.99
2023-12-30T07:51:36.994Z,6.97
2023-12-30T07:52:36.923Z,7.01
2023-12-30T07:53:34.815Z,7.09
2023-12-30T07:54:35.509Z,7.01
2023-12-30T07:55:36.292Z,7.00
2023-12-30T07:56:35.243Z,7.12
2023-12-30T07:57:34.202Z,7.00
2023-12-30T07:58:38.649Z,7.11
2023-12-30T07:59:38.293Z,7.07
2023-12-30T08:00:34.215Z,6.96
2023-12-30T08:01:34.254Z,7.01
2023-12-30T08:02:34.375Z,7.05
2023-12-30T08:03:35.503Z,7.04
2023-12-30T08:04:35.184Z,7.07
2023-12-30T08:05:35.318Z,6.93
2023-12-30T08:06:35.102Z,6.94
2023-12-30T08:07:36.282Z,7.00
2023-12-30T08:08:36.605Z,6.99
2023-12-30T08:09:36.639Z,7.05
2023-12-30T08:11:42.560Z,7.08
2023-12-30T08:12:37.337Z,7.12
2023-12-30T08:13:38.018Z,7.16
2023-12-30T08:14:36.149Z,7.05
2023-12-30T08:15:34.668Z,7.19
2023-12-30T08:16:36.171Z,7.08
2023-12-30T08:17:34.255Z,7.21
2023-12-30T08:18:34.313Z,7.26
2023-12-30T08:19:34.145Z,7.21
2023-12-30T08:20:33.975Z,7.27
2023-12-30T08:21:34.126Z,7.36
2023-12-30T08:22:34.043Z,7.34
2023-12-30T08:23:33.939Z,7.74
2023-12-30T08:24:33.945Z,7.94
2023-12-30T08:25:34.016Z,8.14
2023-12-30T08:26:33.977Z,8.40
2023-12-30T08:27:34.912Z,8.47
2023-12-30T08:28:33.897Z,8.29
2023-12-30T08:29:33.876Z,8.22
2023-12-30T08:30:33.937Z,8.12
2023-12-30T08:31:33.950Z,8.03
2023-12-30T08:32:33.864Z,7.95
2023-12-30T08:33:34.018Z,7.86
2023-12-30T08:34:33.977Z,7.77
2023-12-30T08:35:34.070Z,7.70
2023-12-30T08:36:33.842Z,7.62
2023-12-30T08:37:33.872Z,7.57
2023-12-30T08:38:33.761Z,7.55
2023-12-30T08:39:33.757Z,7.52
2023-12-30T08:40:36.239Z,7.54
2023-12-30T08:41:33.750Z,7.52
2023-12-30T08:42:33.793Z,7.44
2023-12-30T08:43:33.768Z,7.52
2023-12-30T08:44:33.711Z,7.60
2023-12-30T08:45:33.749Z,7.57
2023-12-30T08:46:33.819Z,7.60
2023-12-30T08:47:33.668Z,7.77
2023-12-30T08:48:33.841Z,7.77
2023-12-30T08:49:33.809Z,7.74
2023-12-30T08:50:33.737Z,7.88
2023-12-30T08:51:33.818Z,7.94
2023-12-30T08:52:33.693Z,8.27
2023-12-30T08:53:33.678Z,8.47
2023-12-30T08:54:33.622Z,8.73
2023-12-30T08:55:33.665Z,9.04
2023-12-30T08:56:33.794Z,9.10
2023-12-30T08:57:33.559Z,9.26
2023-12-30T08:58:33.652Z,9.44
2023-12-30T08:59:34.017Z,9.44
2023-12-30T09:00:33.644Z,9.56
2023-12-30T09:01:33.633Z,9.68
2023-12-30T09:02:33.494Z,9.68
2023-12-30T09:03:33.615Z,9.91
2023-12-30T09:04:33.604Z,10.01
2023-12-30T09:05:33.688Z,9.74
2023-12-30T09:06:33.458Z,9.44
2023-12-30T09:07:33.712Z,9.50
2023-12-30T09:08:33.441Z,9.19
2023-12-30T09:09:33.482Z,9.16
2023-12-30T09:10:33.592Z,8.80
2023-12-30T09:11:33.448Z,8.60
2023-12-30T09:12:33.398Z,8.46
2023-12-30T09:13:33.414Z,8.42
2023-12-30T09:14:33.529Z,8.22
2023-12-30T09:15:33.364Z,8.20
2023-12-30T09:16:33.393Z,8.28
2023-12-30T09:17:33.521Z,8.18
2023-12-30T09:18:33.387Z,8.07
2023-12-30T09:19:33.424Z,8.09
2023-12-30T09:20:33.428Z,8.00
2023-12-30T09:21:33.297Z,7.99
2023-12-30T09:22:33.342Z,7.94
2023-12-30T09:23:33.329Z,7.89
2023-12-30T09:24:33.268Z,7.89
2023-12-30T09:25:33.269Z,7.86
2023-12-30T09:26:33.226Z,7.84
2023-12-30T09:27:33.250Z,7.88
2023-12-30T09:28:33.344Z,7.89
2023-12-30T09:29:33.257Z,7.92
2023-12-30T09:30:33.261Z,7.84
2023-12-30T09:31:33.204Z,7.88
2023-12-30T09:32:33.205Z,7.86
2023-12-30T09:33:33.441Z,7.92
2023-12-30T09:34:41.339Z,7.77
2023-12-30T09:35:35.245Z,7.91
2023-12-30T09:36:33.141Z,7.88
2023-12-30T09:37:33.192Z,7.89
2023-12-30T09:38:33.178Z,7.82
2023-12-30T09:39:33.088Z,7.86
2023-12-30T09:40:33.207Z,7.82
2023-12-30T09:41:33.135Z,7.89
2023-12-30T09:42:33.055Z,7.82
2023-12-30T09:43:33.072Z,7.82
2023-12-30T09:44:33.083Z,7.69
2023-12-30T09:45:33.068Z,7.77
2023-12-30T09:46:33.056Z,7.69
2023-12-30T09:47:33.091Z,7.63
2023-12-30T09:48:33.209Z,7.60
2023-12-30T09:49:33.052Z,7.63
2023-12-30T09:50:32.992Z,7.63
2023-12-30T09:51:32.974Z,7.71
2023-12-30T09:52:33.100Z,7.63
2023-12-30T09:53:33.025Z,7.67
2023-12-30T09:54:42.326Z,7.70
2023-12-30T09:55:35.042Z,7.67
2023-12-30T09:56:32.944Z,7.69
2023-12-30T09:57:32.950Z,7.63
2023-12-30T09:58:32.927Z,7.76
2023-12-30T09:59:32.916Z,7.82
2023-12-30T10:00:32.900Z,7.81
2023-12-30T10:01:33.056Z,7.77
2023-12-30T10:02:32.859Z,7.77
2023-12-30T10:03:39.065Z,7.74
2023-12-30T10:04:37.082Z,7.69
2023-12-30T10:05:36.123Z,7.76
2023-12-30T10:06:37.010Z,7.82
2023-12-30T10:07:35.204Z,7.86
2023-12-30T10:08:35.365Z,7.77
2023-12-30T10:09:34.864Z,7.81
2023-12-30T10:10:35.037Z,7.92
2023-12-30T10:11:35.505Z,7.81
2023-12-30T10:12:34.209Z,7.77
2023-12-30T10:13:34.268Z,7.86
2023-12-30T10:14:35.438Z,7.79
2023-12-30T10:15:36.325Z,7.79
2023-12-30T10:16:35.033Z,7.88
2023-12-30T10:17:33.988Z,7.81
2023-12-30T10:18:34.577Z,7.79
2023-12-30T10:19:36.585Z,7.86
2023-12-30T10:20:33.473Z,7.73
2023-12-30T10:21:37.487Z,7.76
2023-12-30T10:22:34.200Z,7.74
2023-12-30T10:23:32.615Z,7.81
2023-12-30T10:24:36.686Z,7.74
2023-12-30T10:25:32.800Z,7.79
2023-12-30T10:26:37.106Z,7.73
2023-12-30T10:27:36.702Z,7.82
2023-12-30T10:28:36.155Z,7.77
2023-12-30T10:29:46.059Z,7.85
2023-12-30T10:30:35.713Z,7.82
2023-12-30T10:31:35.366Z,7.71
2023-12-30T10:32:34.151Z,7.85
2023-12-30T10:33:36.229Z,7.86
2023-12-30T10:34:34.771Z,7.82
2023-12-30T10:35:34.274Z,7.85
2023-12-30T10:36:32.478Z,7.81
2023-12-30T10:37:38.366Z,7.84
2023-12-30T10:38:34.234Z,7.76
2023-12-30T10:39:35.357Z,7.79
2023-12-30T10:40:35.750Z,7.85
2023-12-30T10:41:35.022Z,7.76
2023-12-30T10:42:32.654Z,7.84
2023-12-30T10:43:49.435Z,7.82
2023-12-30T10:44:35.183Z,7.82
2023-12-30T10:45:33.914Z,7.82
2023-12-30T10:46:32.901Z,7.92
2023-12-30T10:47:32.427Z,7.88
2023-12-30T10:48:34.986Z,7.96
2023-12-30T10:49:32.843Z,8.10
2023-12-30T10:50:36.683Z,8.13
2023-12-30T10:51:35.324Z,8.17
2023-12-30T10:52:33.583Z,8.17
2023-12-30T10:53:32.257Z,8.21
2023-12-30T10:54:32.325Z,8.42
2023-12-30T10:55:33.723Z,8.42
2023-12-30T10:56:32.897Z,8.37
2023-12-30T10:57:33.652Z,8.43
2023-12-30T10:58:36.824Z,8.57
2023-12-30T10:59:34.556Z,8.50
2023-12-30T11:00:34.296Z,8.58
2023-12-30T11:01:33.823Z,8.65
2023-12-30T11:02:32.754Z,8.82
2023-12-30T11:03:34.672Z,8.80
2023-12-30T11:04:32.216Z,8.79
2023-12-30T11:05:35.344Z,8.65
2023-12-30T11:06:32.220Z,8.65
2023-12-30T11:07:34.771Z,8.61
2023-12-30T11:08:33.756Z,8.60
2023-12-30T11:09:34.643Z,8.71
2023-12-30T11:10:35.219Z,8.67
2023-12-30T11:11:34.643Z,8.71
2023-12-30T11:12:33.000Z,8.76
2023-12-30T11:13:35.879Z,8.76
2023-12-30T11:14:32.181Z,8.78
2023-12-30T11:15:34.456Z,8.80
2023-12-30T11:16:34.321Z,8.88
2023-12-30T11:17:33.736Z,8.83
2023-12-30T11:18:33.566Z,8.83
2023-12-30T11:19:34.136Z,8.85
2023-12-30T11:20:32.052Z,8.89
2023-12-30T11:21:33.383Z,8.85
2023-12-30T11:22:33.572Z,8.86
2023-12-30T11:23:33.273Z,8.89
2023-12-30T11:24:33.784Z,9.00
2023-12-30T11:25:33.410Z,9.06
2023-12-30T11:26:32.001Z,9.22
2023-12-30T11:27:32.932Z,9.22
2023-12-30T11:28:33.206Z,9.13
2023-12-30T11:29:31.899Z,9.19
2023-12-30T11:30:35.491Z,9.08
2023-12-30T11:31:31.900Z,9.08
2023-12-30T11:32:33.666Z,9.08
2023-12-30T11:33:34.365Z,9.03
2023-12-30T11:34:33.595Z,9.22
2023-12-30T11:35:33.032Z,9.52
2023-12-30T11:36:33.108Z,9.38
2023-12-30T11:37:35.022Z,9.50
2023-12-30T11:38:32.494Z,9.38
2023-12-30T11:39:32.818Z,9.32
2023-12-30T11:40:33.228Z,9.44
2023-12-30T11:41:34.052Z,9.67
2023-12-30T11:42:48.239Z,9.49
2023-12-30T11:43:33.923Z,9.44
2023-12-30T11:44:32.333Z,9.35
2023-12-30T11:45:34.921Z,9.32
2023-12-30T11:46:32.191Z,9.12
2023-12-30T11:47:33.924Z,9.10
2023-12-30T11:48:31.899Z,9.01
2023-12-30T11:49:33.422Z,9.08
2023-12-30T11:50:31.734Z,9.06
2023-12-30T11:51:31.720Z,9.01
2023-12-30T11:52:31.725Z,8.96
2023-12-30T11:53:31.701Z,8.94
2023-12-30T11:54:31.639Z,9.00
2023-12-30T11:55:31.673Z,8.89
2023-12-30T11:56:31.815Z,8.88
2023-12-30T11:57:31.735Z,8.85
2023-12-30T11:58:31.657Z,8.88
2023-12-30T11:59:31.754Z,8.79
2023-12-30T12:00:31.721Z,8.76
2023-12-30T12:01:31.714Z,8.73
2023-12-30T12:02:31.629Z,8.64
2023-12-30T12:03:31.605Z,8.75
2023-12-30T12:04:31.638Z,8.83
2023-12-30T12:05:31.592Z,8.88
2023-12-30T12:06:31.578Z,8.86
2023-12-30T12:07:31.647Z,8.91
2023-12-30T12:08:31.488Z,8.86
2023-12-30T12:09:31.608Z,8.96
2023-12-30T12:10:31.595Z,8.98
2023-12-30T12:11:31.514Z,9.01
2023-12-30T12:12:31.447Z,9.03
2023-12-30T12:13:31.682Z,9.12
2023-12-30T12:14:31.408Z,9.10
2023-12-30T12:15:31.642Z,9.17
2023-12-30T12:16:31.421Z,9.15
2023-12-30T12:17:31.536Z,9.15
2023-12-30T12:18:31.476Z,9.37
2023-12-30T12:19:31.504Z,9.56
2023-12-30T12:20:31.397Z,9.53
2023-12-30T12:21:31.445Z,9.45
2023-12-30T12:22:31.450Z,9.75
2023-12-30T12:23:31.508Z,9.85
2023-12-30T12:24:31.416Z,9.99
2023-12-30T12:25:31.403Z,9.93
2023-12-30T12:26:33.055Z,10.06
2023-12-30T12:27:31.294Z,9.98
2023-12-30T12:28:31.383Z,10.02
2023-12-30T12:29:31.442Z,10.17
2023-12-30T12:30:31.290Z,10.02
2023-12-30T12:31:31.394Z,9.95
2023-12-30T12:32:33.003Z,9.73
2023-12-30T12:33:31.240Z,9.52
2023-12-30T12:34:31.295Z,9.42
2023-12-30T12:35:31.240Z,9.42
2023-12-30T12:36:31.294Z,9.30
2023-12-30T12:37:31.653Z,9.35
2023-12-30T12:38:31.164Z,9.37
2023-12-30T12:39:31.201Z,9.37
2023-12-30T12:40:31.178Z,9.40
2023-12-30T12:41:31.107Z,9.38
2023-12-30T12:42:31.560Z,9.34
2023-12-30T12:43:31.272Z,9.37
2023-12-30T12:44:31.152Z,9.27
2023-12-30T12:45:31.660Z,9.32
2023-12-30T12:46:31.179Z,9.45
2023-12-30T12:47:31.166Z,9.34
2023-12-30T12:48:31.193Z,9.42
2023-12-30T12:49:31.515Z,9.37
2023-12-30T12:50:31.157Z,9.41
2023-12-30T12:51:31.741Z,9.48
2023-12-30T12:52:32.118Z,9.45
2023-12-30T12:53:31.076Z,9.45
2023-12-30T12:54:31.250Z,9.48
2023-12-30T12:55:31.037Z,9.44
2023-12-30T12:56:31.172Z,9.44
2023-12-30T12:57:32.191Z,9.56
2023-12-30T12:58:32.029Z,9.48
2023-12-30T12:59:30.928Z,9.59
2023-12-30T13:00:30.920Z,9.65
2023-12-30T13:01:31.147Z,9.65
2023-12-30T13:02:31.036Z,9.63
2023-12-30T13:03:30.968Z,9.75
2023-12-30T13:04:30.993Z,9.86
2023-12-30T13:05:30.982Z,9.80
2023-12-30T13:06:30.919Z,9.77
2023-12-30T13:07:31.235Z,9.77
2023-12-30T13:08:31.169Z,9.81
2023-12-30T13:09:30.849Z,9.81
2023-12-30T13:10:30.828Z,9.86
2023-12-30T13:11:31.545Z,9.86
2023-12-30T13:12:30.826Z,9.77
2023-12-30T13:13:31.060Z,9.85
2023-12-30T13:14:30.982Z,9.80
2023-12-30T13:15:30.764Z,9.77
2023-12-30T13:16:30.961Z,9.65
2023-12-30T13:17:30.787Z,9.80
2023-12-30T13:18:30.752Z,9.74
2023-12-30T13:19:30.778Z,9.65